createdAt,value
2018-03-04T00:01:46.551Z,-9.70
2018-03-04T00:04:13.646Z,-9.60
2018-03-04T00:06:40.006Z,-9.60
2018-03-04T00:09:06.345Z,-9.70
2018-03-04T00:11:32.764Z,-9.70
2018-03-04T00:13:59.919Z,-9.80
2018-03-04T00:16:26.304Z,-9.90
2018-03-04T00:18:52.662Z,-9.80
2018-03-04T00:21:19.014Z,-9.90
2018-03-04T00:23:45.409Z,-10.00
2018-03-04T00:26:11.831Z,-10.20
2018-03-04T00:28:38.976Z,-10.40
2018-03-04T00:31:05.347Z,-10.50
2018-03-04T00:33:31.713Z,-10.50
2018-03-04T00:35:58.829Z,-10.70
2018-03-04T00:38:25.278Z,-10.70
2018-03-04T00:40:51.644Z,-10.70
2018-03-04T00:43:18.004Z,-10.80
2018-03-04T00:45:44.407Z,-10.80
2018-03-04T00:48:10.771Z,-10.80
2018-03-04T00:50:37.128Z,-10.70
2018-03-04T00:53:03.511Z,-10.60
2018-03-04T00:55:29.877Z,-10.60
2018-03-04T00:57:56.234Z,-10.50
2018-03-04T01:00:22.585Z,-10.50
2018-03-04T01:02:48.955Z,-10.40
2018-03-04T01:05:15.339Z,-10.30
2018-03-04T01:07:41.976Z,-10.20
2018-03-04T01:10:09.133Z,-10.30
2018-03-04T01:12:35.542Z,-10.30
2018-03-04T01:15:01.956Z,-10.40
2018-03-04T01:17:28.318Z,-10.40
2018-03-04T01:19:55.431Z,-10.70
2018-03-04T01:22:21.808Z,-10.70
2018-03-04T01:24:48.906Z,-10.80
2018-03-04T01:27:15.327Z,-10.90
2018-03-04T01:29:41.723Z,-11.00
2018-03-04T01:32:08.083Z,-11.20
2018-03-04T01:34:34.744Z,-11.20
2018-03-04T01:37:01.169Z,-11.10
2018-03-04T01:39:27.542Z,-11.00
2018-03-04T01:41:54.636Z,-11.00
2018-03-04T01:44:21.003Z,-11.00
2018-03-04T01:46:47.366Z,-11.00
2018-03-04T01:49:14.466Z,-11.30
2018-03-04T01:51:51.026Z,-11.30
2018-03-04T01:54:17.398Z,-11.30
2018-03-04T01:56:44.496Z,-11.40
2018-03-04T01:59:10.843Z,-11.40
2018-03-04T02:01:37.249Z,-11.30
2018-03-04T02:04:03.635Z,-11.20
2018-03-04T02:06:29.990Z,-11.20
2018-03-04T02:08:56.355Z,-11.30
2018-03-04T02:11:22.758Z,-11.30
2018-03-04T02:13:49.116Z,-11.40
2018-03-04T02:16:15.491Z,-11.50
2018-03-04T02:18:41.844Z,-11.40
2018-03-04T02:21:08.207Z,-11.30
2018-03-04T02:23:34.570Z,-11.30
2018-03-04T02:26:00.928Z,-11.20
2018-03-04T02:28:28.017Z,-11.40
2018-03-04T02:30:54.444Z,-11.40
2018-03-04T02:33:20.831Z,-11.40
2018-03-04T02:35:47.922Z,-11.50
2018-03-04T02:38:14.284Z,-11.60
2018-03-04T02:40:40.644Z,-11.60
2018-03-04T02:43:07.746Z,-11.60
2018-03-04T02:45:34.100Z,-11.60
2018-03-04T02:48:00.471Z,-11.50
2018-03-04T02:50:26.859Z,-11.30
2018-03-04T02:52:53.227Z,-11.40
2018-03-04T02:55:20.588Z,-11.50
2018-03-04T02:57:46.975Z,-11.60
2018-03-04T03:00:13.376Z,-11.50
2018-03-04T03:02:39.746Z,-11.50
2018-03-04T03:05:06.142Z,-11.50
2018-03-04T03:07:32.505Z,-11.50
2018-03-04T03:09:58.901Z,-11.50
2018-03-04T03:12:25.390Z,-11.70
2018-03-04T03:14:52.527Z,-11.90
2018-03-04T03:17:18.892Z,-11.90
2018-03-04T03:19:45.349Z,-11.80
2018-03-04T03:22:11.699Z,-11.80
2018-03-04T03:24:38.055Z,-11.80
2018-03-04T03:27:04.427Z,-11.70
2018-03-04T03:29:30.786Z,-11.80
2018-03-04T03:31:57.151Z,-11.80
2018-03-04T03:34:23.508Z,-11.80
2018-03-04T03:36:49.857Z,-11.80
2018-03-04T03:39:16.228Z,-11.70
2018-03-04T03:41:42.595Z,-11.70
2018-03-04T03:44:09.036Z,-11.70
2018-03-04T03:46:35.401Z,-11.80
2018-03-04T03:49:01.759Z,-11.80
2018-03-04T03:51:28.144Z,-11.80
2018-03-04T03:53:55.243Z,-12.00
2018-03-04T03:56:21.608Z,-12.10
2018-03-04T03:58:48.002Z,-12.10
2018-03-04T04:01:14.375Z,-11.90
2018-03-04T04:03:40.735Z,-11.90
2018-03-04T04:06:07.100Z,-11.80
2018-03-04T04:08:33.471Z,-11.70
2018-03-04T04:11:20.416Z,-11.70
2018-03-04T04:13:46.776Z,-11.60
2018-03-04T04:16:13.355Z,-11.70
2018-03-04T04:18:39.735Z,-11.80
2018-03-04T04:21:06.135Z,-11.70
2018-03-04T04:23:32.486Z,-11.70
2018-03-04T04:25:58.854Z,-11.60
2018-03-04T04:28:25.963Z,-11.50
2018-03-04T04:30:52.351Z,-11.50
2018-03-04T04:33:18.711Z,-11.60
2018-03-04T04:35:45.070Z,-11.80
2018-03-04T04:38:11.491Z,-11.80
2018-03-04T04:40:37.852Z,-11.80
2018-03-04T04:43:04.268Z,-11.80
2018-03-04T04:45:30.641Z,-11.70
2018-03-04T04:47:56.980Z,-11.60
2018-03-04T04:50:23.483Z,-11.60
2018-03-04T04:52:50.604Z,-11.60
2018-03-04T04:55:16.998Z,-11.60
2018-03-04T04:57:43.407Z,-11.60
2018-03-04T05:00:10.586Z,-11.60
2018-03-04T05:02:36.939Z,-11.70
2018-03-04T05:05:03.306Z,-11.60
2018-03-04T05:07:30.410Z,-11.60
2018-03-04T05:09:56.877Z,-11.70
2018-03-04T05:12:23.240Z,-11.70
2018-03-04T05:14:50.331Z,-11.70
2018-03-04T05:17:16.696Z,-11.70
2018-03-04T05:19:43.986Z,-11.70
2018-03-04T05:22:10.360Z,-11.70
2018-03-04T05:24:36.725Z,-11.70
2018-03-04T05:27:03.874Z,-11.90
2018-03-04T05:29:31.005Z,-12.00
2018-03-04T05:31:57.435Z,-12.00
2018-03-04T05:34:25.341Z,-11.80
2018-03-04T05:36:51.662Z,-11.80
2018-03-04T05:39:18.747Z,-11.70
2018-03-04T05:41:45.104Z,-11.70
2018-03-04T05:44:11.462Z,-11.60
2018-03-04T05:46:38.582Z,-11.60
2018-03-04T05:49:04.960Z,-11.60
2018-03-04T05:51:32.138Z,-11.50
2018-03-04T05:53:58.511Z,-11.50
2018-03-04T05:56:25.619Z,-11.60
2018-03-04T05:58:51.992Z,-11.70
2018-03-04T06:01:19.123Z,-11.90
2018-03-04T06:03:45.512Z,-11.90
2018-03-04T06:06:11.891Z,-11.90
2018-03-04T06:08:38.256Z,-11.70
2018-03-04T06:11:04.618Z,-11.60
2018-03-04T06:13:30.983Z,-11.30
2018-03-04T06:15:58.842Z,-10.90
2018-03-04T06:18:25.192Z,-10.90
2018-03-04T06:20:51.546Z,-10.70
2018-03-04T06:23:17.911Z,-10.70
2018-03-04T06:25:44.266Z,-10.80
2018-03-04T06:28:10.650Z,-10.90
2018-03-04T06:30:37.007Z,-11.00
2018-03-04T06:33:03.367Z,-10.90
2018-03-04T06:35:29.794Z,-10.80
2018-03-04T06:37:56.912Z,-10.60
2018-03-04T06:40:23.470Z,-10.60
2018-03-04T06:42:49.837Z,-10.40
2018-03-04T06:45:16.982Z,-10.20
2018-03-04T06:47:43.331Z,-10.20
2018-03-04T06:50:09.691Z,-10.20
2018-03-04T06:52:36.043Z,-9.90
2018-03-04T06:55:02.423Z,-9.80
2018-03-04T06:57:28.791Z,-9.70
2018-03-04T06:59:55.164Z,-9.60
2018-03-04T07:02:21.552Z,-9.40
2018-03-04T07:04:47.935Z,-9.20
2018-03-04T07:07:15.051Z,-8.80
2018-03-04T07:09:42.964Z,-8.80
2018-03-04T07:12:09.360Z,-8.80
2018-03-04T07:14:35.783Z,-8.70
2018-03-04T07:17:02.159Z,-8.70
2018-03-04T07:19:29.234Z,-8.70
2018-03-04T07:21:55.582Z,-8.70
2018-03-04T07:24:21.950Z,-8.40
2018-03-04T07:26:49.062Z,-8.10
2018-03-04T07:29:15.443Z,-8.10
2018-03-04T07:31:42.550Z,-7.70
2018-03-04T07:34:08.951Z,-7.70
2018-03-04T07:36:35.472Z,-7.40
2018-03-04T07:39:01.840Z,-7.30
2018-03-04T07:41:28.226Z,-7.50
2018-03-04T07:43:54.580Z,-7.50
2018-03-04T07:46:20.933Z,-7.20
2018-03-04T07:48:47.351Z,-7.00
2018-03-04T07:51:13.721Z,-6.70
2018-03-04T07:53:40.094Z,-6.50
2018-03-04T07:56:06.447Z,-6.40
2018-03-04T07:58:32.803Z,-6.20
2018-03-04T08:00:59.915Z,-5.80
2018-03-04T08:03:26.275Z,-5.80
2018-03-04T08:05:52.638Z,-5.30
2018-03-04T08:08:19.736Z,-4.60
2018-03-04T08:10:46.164Z,-4.60
2018-03-04T08:13:12.567Z,-4.20
2018-03-04T08:15:38.962Z,-3.60
2018-03-04T08:18:06.804Z,-2.80
2018-03-04T08:20:33.154Z,-2.80
2018-03-04T08:22:59.510Z,-2.60
2018-03-04T08:25:32.586Z,-2.50
2018-03-04T08:28:11.958Z,-2.90
2018-03-04T08:30:38.344Z,-2.90
2018-03-04T08:33:04.713Z,-3.60
2018-03-04T08:35:31.082Z,-3.60
2018-03-04T08:37:57.511Z,-3.60
2018-03-04T08:40:23.881Z,-3.70
2018-03-04T08:42:50.247Z,-4.10
2018-03-04T08:45:16.623Z,-3.70
2018-03-04T08:47:43.002Z,-3.80
2018-03-04T08:50:09.359Z,-3.60
2018-03-04T08:52:35.702Z,-3.40
2018-03-04T08:55:02.067Z,-3.60
2018-03-04T08:57:28.426Z,-3.60
2018-03-04T08:59:54.794Z,-3.40
2018-03-04T09:02:21.166Z,-3.30
2018-03-04T09:04:47.524Z,-3.40
2018-03-04T09:07:13.924Z,-3.30
2018-03-04T09:09:40.325Z,-3.20
2018-03-04T09:12:06.688Z,-3.50
2018-03-04T09:14:33.076Z,-3.50
2018-03-04T09:16:59.460Z,-3.10
2018-03-04T09:19:26.562Z,-3.50
2018-03-04T09:21:52.928Z,-3.50
2018-03-04T09:24:19.376Z,-3.30
2018-03-04T09:26:45.772Z,-3.50
2018-03-04T09:29:12.315Z,-3.50
2018-03-04T09:31:38.679Z,-3.80
2018-03-04T09:34:05.782Z,-2.80
2018-03-04T09:36:32.199Z,-2.80
2018-03-04T09:38:58.559Z,-3.20
2018-03-04T09:41:25.055Z,-3.10
2018-03-04T09:43:51.427Z,-3.30
2018-03-04T09:46:17.798Z,-2.60
2018-03-04T09:48:44.159Z,-2.50
2018-03-04T09:51:10.621Z,-2.20
2018-03-04T09:53:36.992Z,-1.90
2018-03-04T09:56:03.375Z,-2.20
2018-03-04T09:58:29.759Z,-1.90
2018-03-04T10:00:56.156Z,-1.80
2018-03-04T10:03:22.558Z,-1.50
2018-03-04T10:05:48.946Z,-1.50
2018-03-04T10:08:15.338Z,-1.10
2018-03-04T10:10:41.727Z,-1.10
2018-03-04T10:13:08.119Z,-0.60
2018-03-04T10:15:35.238Z,0.80
2018-03-04T10:18:01.608Z,0.80
2018-03-04T10:20:28.733Z,0.00
2018-03-04T10:22:55.094Z,0.00
2018-03-04T10:25:22.234Z,1.00
2018-03-04T10:27:49.359Z,1.20
2018-03-04T10:30:15.726Z,1.20
2018-03-04T10:32:42.815Z,1.10
2018-03-04T10:35:09.198Z,1.10
2018-03-04T10:37:36.292Z,0.10
2018-03-04T10:40:02.750Z,0.00
2018-03-04T10:42:29.128Z,-0.60
2018-03-04T10:44:55.547Z,-1.00
2018-03-04T10:47:22.829Z,-1.80
2018-03-04T10:49:49.216Z,-1.80
2018-03-04T10:52:15.609Z,-1.80
2018-03-04T10:54:42.175Z,-1.80
2018-03-04T10:57:08.547Z,-1.60
2018-03-04T10:59:35.674Z,-1.30
2018-03-04T11:02:03.737Z,-1.10
2018-03-04T11:04:30.137Z,-1.20
2018-03-04T11:06:56.540Z,-1.30
2018-03-04T11:09:22.967Z,-1.30
2018-03-04T11:11:49.341Z,-1.10
2018-03-04T11:14:15.723Z,-1.00
2018-03-04T11:16:42.846Z,-1.00
2018-03-04T11:19:09.259Z,-1.10
2018-03-04T11:21:35.622Z,-0.70
2018-03-04T11:24:02.711Z,-0.10
2018-03-04T11:26:29.086Z,-0.20
2018-03-04T11:28:55.455Z,-0.20
2018-03-04T11:31:22.591Z,-0.60
2018-03-04T11:33:49.994Z,-0.70
2018-03-04T11:36:16.366Z,-0.10
2018-03-04T11:38:43.463Z,-0.80
2018-03-04T11:41:09.874Z,-0.80
2018-03-04T11:43:36.216Z,-0.90
2018-03-04T11:46:02.594Z,-0.90
2018-03-04T11:48:29.031Z,-1.20
2018-03-04T11:50:55.459Z,-1.20
2018-03-04T11:53:21.827Z,-0.80
2018-03-04T11:55:48.192Z,-0.20
2018-03-04T11:58:14.793Z,0.10
2018-03-04T12:00:41.164Z,0.10
2018-03-04T12:03:07.522Z,0.40
2018-03-04T12:05:33.878Z,0.40
2018-03-04T12:08:01.008Z,0.20
2018-03-04T12:10:28.115Z,0.00
2018-03-04T12:12:54.480Z,0.00
2018-03-04T12:15:20.864Z,0.30
2018-03-04T12:17:47.206Z,0.40
2018-03-04T12:20:13.571Z,0.30
2018-03-04T12:22:39.919Z,0.50
2018-03-04T12:25:06.284Z,0.50
2018-03-04T12:27:32.638Z,0.80
2018-03-04T12:29:59.016Z,0.90
2018-03-04T12:32:26.130Z,1.20
2018-03-04T12:34:52.670Z,1.10
2018-03-04T12:37:19.040Z,0.90
2018-03-04T12:39:45.407Z,0.60
2018-03-04T12:42:11.788Z,0.90
2018-03-04T12:44:38.148Z,0.70
2018-03-04T12:47:05.366Z,0.90
2018-03-04T12:49:31.844Z,0.90
2018-03-04T12:51:58.285Z,1.20
2018-03-04T12:54:24.706Z,1.00
2018-03-04T12:56:51.023Z,0.70
2018-03-04T12:59:18.202Z,0.40
2018-03-04T13:01:44.583Z,0.40
2018-03-04T13:04:11.711Z,0.90
2018-03-04T13:06:38.079Z,0.90
2018-03-04T13:09:04.526Z,1.00
2018-03-04T13:11:30.891Z,0.70
2018-03-04T13:13:57.287Z,1.00
2018-03-04T13:16:23.653Z,0.80
2018-03-04T13:18:50.038Z,1.00
2018-03-04T13:21:17.220Z,0.80
2018-03-04T13:23:43.599Z,0.80
2018-03-04T13:26:10.020Z,0.70
2018-03-04T13:28:36.407Z,0.90
2018-03-04T13:31:02.805Z,1.20
2018-03-04T13:33:29.239Z,1.30
2018-03-04T13:35:55.641Z,1.20
2018-03-04T13:38:22.231Z,1.20
2018-03-04T13:40:48.612Z,1.10
2018-03-04T13:43:14.969Z,1.10
2018-03-04T13:45:42.074Z,0.90
2018-03-04T13:48:08.430Z,0.90
2018-03-04T13:50:34.833Z,1.00
2018-03-04T13:53:01.212Z,1.00
2018-03-04T13:55:28.446Z,0.70
2018-03-04T13:57:55.575Z,0.70
2018-03-04T14:00:21.974Z,0.60
2018-03-04T14:02:48.383Z,0.60
2018-03-04T14:05:14.783Z,0.60
2018-03-04T14:07:41.204Z,0.50
2018-03-04T14:10:07.593Z,0.60
2018-03-04T14:12:34.695Z,0.70
2018-03-04T14:15:01.127Z,0.60
2018-03-04T14:17:27.549Z,0.70
2018-03-04T14:19:54.011Z,0.30
2018-03-04T14:22:20.400Z,0.10
2018-03-04T14:24:46.766Z,-0.10
2018-03-04T14:27:13.191Z,-0.10
2018-03-04T14:29:39.611Z,-0.30
2018-03-04T14:32:06.044Z,-0.40
2018-03-04T14:34:32.444Z,-0.40
2018-03-04T14:36:58.868Z,-0.10
2018-03-04T14:39:25.334Z,0.00
2018-03-04T14:41:51.726Z,0.00
2018-03-04T14:44:18.174Z,0.30
2018-03-04T14:46:44.574Z,0.20
2018-03-04T14:49:11.704Z,0.10
2018-03-04T14:51:38.129Z,0.10
2018-03-04T14:54:04.570Z,0.20
2018-03-04T14:56:31.015Z,0.20
2018-03-04T14:58:57.388Z,0.10
2018-03-04T15:01:23.917Z,0.30
2018-03-04T15:03:50.525Z,0.10
2018-03-04T15:06:17.664Z,-0.30
2018-03-04T15:08:44.035Z,-0.40
2018-03-04T15:11:10.429Z,0.00
2018-03-04T15:13:36.794Z,0.50
2018-03-04T15:16:03.938Z,0.60
2018-03-04T15:18:31.081Z,0.30
2018-03-04T15:20:57.463Z,0.30
2018-03-04T15:23:23.844Z,0.10
2018-03-04T15:25:50.996Z,0.20
2018-03-04T15:28:18.143Z,0.30
2018-03-04T15:30:45.301Z,0.80
2018-03-04T15:33:11.742Z,0.80
2018-03-04T15:35:38.135Z,0.50
2018-03-04T15:38:04.533Z,0.80
2018-03-04T15:40:30.902Z,0.50
2018-03-04T15:42:57.270Z,0.10
2018-03-04T15:45:23.669Z,0.20
2018-03-04T15:47:50.063Z,0.40
2018-03-04T15:50:16.536Z,0.60
2018-03-04T15:52:42.919Z,0.90
2018-03-04T15:55:09.294Z,1.10
2018-03-04T15:57:35.674Z,1.00
2018-03-04T16:00:02.162Z,0.60
2018-03-04T16:02:28.527Z,0.50
2018-03-04T16:04:54.960Z,0.50
2018-03-04T16:07:21.335Z,0.50
2018-03-04T16:09:47.705Z,0.40
2018-03-04T16:12:14.798Z,0.70
2018-03-04T16:14:41.178Z,0.60
2018-03-04T16:17:08.292Z,0.50
2018-03-04T16:19:34.654Z,0.50
2018-03-04T16:22:01.027Z,0.70
2018-03-04T16:24:27.478Z,0.70
2018-03-04T16:26:53.930Z,0.50
2018-03-04T16:29:20.294Z,0.60
2018-03-04T16:31:47.464Z,0.50
2018-03-04T16:34:13.867Z,0.50
2018-03-04T16:36:42.015Z,0.50
2018-03-04T16:39:08.386Z,0.50
2018-03-04T16:41:35.494Z,0.30
2018-03-04T16:44:02.053Z,0.30
2018-03-04T16:46:28.439Z,0.20
2018-03-04T16:48:54.803Z,0.20
2018-03-04T16:51:21.203Z,0.20
2018-03-04T16:53:47.951Z,0.10
2018-03-04T16:56:14.358Z,0.00
2018-03-04T16:58:40.778Z,0.00
2018-03-04T17:01:07.179Z,-0.10
2018-03-04T17:03:33.560Z,-0.20
2018-03-04T17:05:59.965Z,-0.30
2018-03-04T17:08:26.363Z,-0.40
2018-03-04T17:10:52.742Z,-0.50
2018-03-04T17:13:19.866Z,-0.70
2018-03-04T17:15:46.976Z,-0.70
2018-03-04T17:18:13.649Z,-0.70
2018-03-04T17:20:40.791Z,-0.80
2018-03-04T17:23:07.144Z,-0.80
2018-03-04T17:25:34.291Z,-0.90
2018-03-04T17:28:00.656Z,-0.80
2018-03-04T17:30:27.072Z,-0.80
2018-03-04T17:32:53.428Z,-0.90
2018-03-04T17:35:19.794Z,-0.90
2018-03-04T17:37:46.161Z,-0.90
2018-03-04T17:40:12.526Z,-0.90
2018-03-04T17:42:39.021Z,-0.90
2018-03-04T17:45:06.130Z,-0.90
2018-03-04T17:47:32.522Z,-0.90
2018-03-04T17:49:58.882Z,-0.90
2018-03-04T17:52:25.291Z,-0.90
2018-03-04T17:54:51.663Z,-0.80
2018-03-04T17:57:18.026Z,-0.90
2018-03-04T17:59:45.149Z,-1.00
2018-03-04T18:02:12.264Z,-1.20
2018-03-04T18:04:38.612Z,-1.30
2018-03-04T18:07:05.000Z,-1.10
2018-03-04T18:09:31.356Z,-1.10
2018-03-04T18:11:57.728Z,-1.00
2018-03-04T18:14:24.123Z,-1.10
2018-03-04T18:16:50.471Z,-1.00
2018-03-04T18:19:16.836Z,-1.20
2018-03-04T18:21:43.959Z,-1.30
2018-03-04T18:24:10.341Z,-1.30
2018-03-04T18:26:36.695Z,-1.30
2018-03-04T18:29:03.077Z,-1.10
2018-03-04T18:31:30.224Z,-1.20
2018-03-04T18:33:57.668Z,-1.20
2018-03-04T18:36:24.792Z,-1.20
2018-03-04T18:38:51.158Z,-1.30
2018-03-04T18:41:18.279Z,-1.30
2018-03-04T18:43:44.746Z,-1.30
2018-03-04T18:46:11.072Z,-1.40
2018-03-04T18:48:37.536Z,-1.40
2018-03-04T18:51:03.922Z,-1.30
2018-03-04T18:53:31.046Z,-1.50
2018-03-04T18:55:57.483Z,-1.50
2018-03-04T18:58:23.858Z,-1.40
2018-03-04T19:00:51.002Z,-1.50
2018-03-04T19:03:18.102Z,-1.50
2018-03-04T19:05:44.524Z,-1.50
2018-03-04T19:08:10.928Z,-1.40
2018-03-04T19:10:38.059Z,-1.50
2018-03-04T19:13:04.503Z,-1.50
2018-03-04T19:15:31.638Z,-1.60
2018-03-04T19:17:58.026Z,-1.70
2018-03-04T19:20:24.410Z,-1.60
2018-03-04T19:22:51.559Z,-1.80
2018-03-04T19:25:18.728Z,-1.80
2018-03-04T19:27:45.122Z,-1.80
2018-03-04T19:30:12.310Z,-1.80
2018-03-04T19:32:38.699Z,-1.80
2018-03-04T19:35:05.129Z,-1.80
2018-03-04T19:37:31.546Z,-1.90
2018-03-04T19:39:57.942Z,-2.00
2018-03-04T19:42:24.355Z,-2.00
2018-03-04T19:44:51.496Z,-2.30
2018-03-04T19:47:18.650Z,-2.30
2018-03-04T19:49:45.770Z,-2.50
2018-03-04T19:52:17.947Z,-2.50
2018-03-04T19:54:44.857Z,-2.50
2018-03-04T19:57:11.305Z,-2.50
2018-03-04T19:59:37.673Z,-2.40
2018-03-04T20:02:04.863Z,-2.40
2018-03-04T20:04:31.261Z,-2.40
2018-03-04T20:06:58.450Z,-2.50
2018-03-04T20:09:25.523Z,-2.40
2018-03-04T20:11:51.882Z,-2.40
2018-03-04T20:14:18.235Z,-2.40
2018-03-04T20:16:45.322Z,-2.40
2018-03-04T20:19:11.678Z,-2.50
2018-03-04T20:21:38.065Z,-2.40
2018-03-04T20:24:04.467Z,-2.40
2018-03-04T20:26:31.594Z,-2.60
2018-03-04T20:28:57.972Z,-2.60
2018-03-04T20:31:24.327Z,-2.40
2018-03-04T20:33:50.704Z,-2.30
2018-03-04T20:36:17.820Z,-2.10
2018-03-04T20:38:44.198Z,-2.10
2018-03-04T20:41:10.563Z,-2.00
2018-03-04T20:43:36.957Z,-2.00
2018-03-04T20:46:03.330Z,-1.80
2018-03-04T20:48:29.702Z,-1.60
2018-03-04T20:50:56.825Z,-1.40
2018-03-04T20:53:23.212Z,-1.40
2018-03-04T20:55:49.575Z,-1.40
2018-03-04T20:58:15.944Z,-1.30
2018-03-04T21:00:42.320Z,-1.30
2018-03-04T21:03:08.797Z,-1.10
2018-03-04T21:05:35.189Z,-1.10
2018-03-04T21:08:01.612Z,-1.10
2018-03-04T21:10:28.008Z,-1.00
2018-03-04T21:12:54.371Z,-1.10
2018-03-04T21:15:20.725Z,-1.00
2018-03-04T21:17:47.096Z,-1.00
2018-03-04T21:20:13.463Z,-1.00
2018-03-04T21:22:39.820Z,-0.80
2018-03-04T21:25:06.203Z,-0.70
2018-03-04T21:27:33.364Z,-0.70
2018-03-04T21:30:00.450Z,-1.40
2018-03-04T21:32:26.822Z,-1.40
2018-03-04T21:34:53.212Z,-1.50
2018-03-04T21:37:19.582Z,-1.40
2018-03-04T21:39:45.967Z,-1.00
2018-03-04T21:42:12.391Z,-0.90
2018-03-04T21:44:39.497Z,-1.00
2018-03-04T21:47:05.859Z,-1.10
2018-03-04T21:49:32.256Z,-0.90
2018-03-04T21:52:00.188Z,-1.10
2018-03-04T21:54:27.308Z,-1.00
2018-03-04T21:56:53.745Z,-1.00
2018-03-04T21:59:20.169Z,-0.60
2018-03-04T22:01:47.288Z,-0.50
2018-03-04T22:04:13.650Z,-0.50
2018-03-04T22:06:40.025Z,-0.40
2018-03-04T22:09:06.473Z,-0.50
2018-03-04T22:11:33.591Z,-0.80
2018-03-04T22:13:59.966Z,-0.80
2018-03-04T22:16:26.362Z,-0.70
2018-03-04T22:18:52.778Z,-0.50
2018-03-04T22:21:19.169Z,-0.40
2018-03-04T22:23:46.282Z,-1.40
2018-03-04T22:26:12.644Z,-1.40
2018-03-04T22:28:39.018Z,-1.30
2018-03-04T22:31:05.399Z,-1.10
2018-03-04T22:33:31.773Z,-0.80
2018-03-04T22:35:58.145Z,-0.80
2018-03-04T22:38:24.546Z,-1.30
2018-03-04T22:40:50.960Z,-1.50
2018-03-04T22:43:17.349Z,-1.40
2018-03-04T22:45:43.723Z,-1.40
2018-03-04T22:48:10.082Z,-1.40
2018-03-04T22:50:36.453Z,-1.50
2018-03-04T22:53:02.838Z,-1.10
2018-03-04T22:55:29.227Z,-0.80
2018-03-04T22:57:56.327Z,-0.60
2018-03-04T23:00:22.694Z,-0.60
2018-03-04T23:02:50.573Z,-0.20
2018-03-04T23:05:16.932Z,-0.30
2018-03-04T23:07:43.303Z,-0.40
2018-03-04T23:10:09.714Z,-0.80
2018-03-04T23:12:36.092Z,-0.90
2018-03-04T23:15:02.555Z,-0.70
2018-03-04T23:17:28.932Z,-0.90
2018-03-04T23:19:55.362Z,-1.30
2018-03-04T23:22:21.967Z,-1.70
2018-03-04T23:24:48.380Z,-1.60
2018-03-04T23:27:15.483Z,-1.50
2018-03-04T23:29:41.839Z,-1.50
2018-03-04T23:32:08.225Z,-1.80
2018-03-04T23:34:34.587Z,-1.90
2018-03-04T23:37:00.999Z,-1.40
2018-03-04T23:39:27.380Z,-0.90
2018-03-04T23:41:54.502Z,-1.10
2018-03-04T23:44:20.878Z,-1.10
2018-03-04T23:46:47.249Z,-1.00
2018-03-04T23:49:13.622Z,-1.30
2018-03-04T23:51:41.212Z,-0.60
2018-03-04T23:54:07.585Z,-0.60
2018-03-04T23:56:33.981Z,-1.10
2018-03-04T23:59:00.371Z,-1.10
